Portada
METAR-TAF:

METAR-TAF

Aeroports :

Buriram, Tailàndia

latitud: 15-13-46N, longitud: 103-15-04E, altitud: 180 m

Observació

L'informe es va fer fa 43 minuts, a les 04:00 UTC
Vent 4 kt del Oest/Sud-Oest, variant entre Sud i Nord-Oest
Temperatura 27°C
Humitat 89%
Pressió 1011 hPa
Visibilitat: 4000 m
Escasses núvols a una alçada de 1100 ft
Escasses núvols a una alçada de 1800 ft, Cumulonimbus.
Cel ennuvolat a una alçada de 2800 ft
pluja

METAR: VTUO 220400Z 24004KT 180V320 9999 4000SW RA FEW011 FEW018CB BKN028 27/25 Q1011 NOSIG

Hora: 11:43 (04:43 UTC)

Pronòstic

L'informe es va fer fa 5 hores i 43 minuts, a les 23:00 UTC
Pronòstic vàlid del 22 a les 00 UTC al 22 a les 24 UTC
Vent 5 kt del Sud/Sud-Oest
Visibilitat: 9000 m
Escasses núvols a una alçada de 3000 ft

TAF: VTUO 212300Z 2200/2224 20005KT 9000 FEW030

Observacions i pronòstics meteorològics de més de 4000 aeroports (METAR i TAF).

Les estacions disponibles són els punts grocs i vermells al mapa.

Posi el ratolí al punt desitjat per veure el nom de l'estació.

Feu clic per veure les observacions i els pronòstics meteorològics.

Per canviar el mapa: feu clic els botons verds amb una creu de color negre per apropar; al botó verd amb un guió per allunyar la imatge; o en les fletxes verdes per a mapes adjacents.


METAR-TAF: